sensor_id;sensor_type;location;lat;lon;timestamp;temperature;humidity
19781;DHT22;10050;55.492;13.506;2024-03-06T00:00:07;3.00;99.90
19781;DHT22;10050;55.492;13.506;2024-03-06T00:02:34;3.00;99.90
19781;DHT22;10050;55.492;13.506;2024-03-06T00:05:00;3.00;99.90
19781;DHT22;10050;55.492;13.506;2024-03-06T00:07:26;3.00;99.90
19781;DHT22;10050;55.492;13.506;2024-03-06T00:09:51;3.10;99.90
19781;DHT22;10050;55.492;13.506;2024-03-06T00:12:18;3.10;99.90
19781;DHT22;10050;55.492;13.506;2024-03-06T00:14:44;3.10;99.90
19781;DHT22;10050;55.492;13.506;2024-03-06T00:17:09;3.10;99.90
19781;DHT22;10050;55.492;13.506;2024-03-06T00:19:35;3.20;99.90
19781;DHT22;10050;55.492;13.506;2024-03-06T00:22:01;3.20;99.90
19781;DHT22;10050;55.492;13.506;2024-03-06T00:24:28;3.20;99.90
19781;DHT22;10050;55.492;13.506;2024-03-06T00:26:53;3.20;99.90
19781;DHT22;10050;55.492;13.506;2024-03-06T00:29:19;3.20;99.90
19781;DHT22;10050;55.492;13.506;2024-03-06T00:31:45;3.30;99.90
19781;DHT22;10050;55.492;13.506;2024-03-06T00:34:11;3.30;99.90
19781;DHT22;10050;55.492;13.506;2024-03-06T00:36:41;3.30;99.90
19781;DHT22;10050;55.492;13.506;2024-03-06T00:39:06;3.30;99.90
19781;DHT22;10050;55.492;13.506;2024-03-06T00:41:36;3.40;99.90
19781;DHT22;10050;55.492;13.506;2024-03-06T00:44:02;3.40;99.90
19781;DHT22;10050;55.492;13.506;2024-03-06T00:46:28;3.40;99.90
19781;DHT22;10050;55.492;13.506;2024-03-06T00:48:54;3.40;99.90
19781;DHT22;10050;55.492;13.506;2024-03-06T00:51:19;3.40;99.90
19781;DHT22;10050;55.492;13.506;2024-03-06T00:53:45;3.40;99.90
19781;DHT22;10050;55.492;13.506;2024-03-06T00:56:11;3.50;99.90
19781;DHT22;10050;55.492;13.506;2024-03-06T00:58:37;3.40;99.90
19781;DHT22;10050;55.492;13.506;2024-03-06T01:01:02;3.50;99.90
19781;DHT22;10050;55.492;13.506;2024-03-06T01:03:28;3.50;99.90
19781;DHT22;10050;55.492;13.506;2024-03-06T01:05:54;3.50;99.90
19781;DHT22;10050;55.492;13.506;2024-03-06T01:08:24;3.50;99.90
19781;DHT22;10050;55.492;13.506;2024-03-06T01:10:52;3.50;99.90
19781;DHT22;10050;55.492;13.506;2024-03-06T01:13:19;3.50;99.90
19781;DHT22;10050;55.492;13.506;2024-03-06T01:15:45;3.50;99.90
19781;DHT22;10050;55.492;13.506;2024-03-06T01:18:11;3.60;99.90
19781;DHT22;10050;55.492;13.506;2024-03-06T01:20:36;3.50;99.90
19781;DHT22;10050;55.492;13.506;2024-03-06T01:23:02;3.60;99.90
19781;DHT22;10050;55.492;13.506;2024-03-06T01:25:28;3.60;99.90
19781;DHT22;10050;55.492;13.506;2024-03-06T01:27:54;3.60;99.90
19781;DHT22;10050;55.492;13.506;2024-03-06T01:30:19;3.60;99.90
19781;DHT22;10050;55.492;13.506;2024-03-06T01:32:45;3.60;99.90
19781;DHT22;10050;55.492;13.506;2024-03-06T01:35:11;3.60;99.90
19781;DHT22;10050;55.492;13.506;2024-03-06T01:37:37;3.70;99.90
19781;DHT22;10050;55.492;13.506;2024-03-06T01:40:03;3.70;99.90
19781;DHT22;10050;55.492;13.506;2024-03-06T01:42:34;3.60;99.90
19781;DHT22;10050;55.492;13.506;2024-03-06T01:45:00;3.70;99.90
19781;DHT22;10050;55.492;13.506;2024-03-06T01:47:25;3.70;99.90
19781;DHT22;10050;55.492;13.506;2024-03-06T01:49:51;3.70;99.90
19781;DHT22;10050;55.492;13.506;2024-03-06T01:52:17;3.70;99.90
19781;DHT22;10050;55.492;13.506;2024-03-06T01:54:44;3.70;99.90
19781;DHT22;10050;55.492;13.506;2024-03-06T01:57:11;3.70;99.90
19781;DHT22;10050;55.492;13.506;2024-03-06T01:59:39;3.70;99.90
19781;DHT22;10050;55.492;13.506;2024-03-06T02:02:05;3.70;99.90
19781;DHT22;10050;55.492;13.506;2024-03-06T02:04:33;3.70;99.90
19781;DHT22;10050;55.492;13.506;2024-03-06T02:06:59;3.80;99.90
19781;DHT22;10050;55.492;13.506;2024-03-06T02:09:24;3.70;99.90
19781;DHT22;10050;55.492;13.506;2024-03-06T02:11:50;3.70;99.90
19781;DHT22;10050;55.492;13.506;2024-03-06T02:14:16;3.70;99.90
19781;DHT22;10050;55.492;13.506;2024-03-06T02:16:42;3.70;99.90
19781;DHT22;10050;55.492;13.506;2024-03-06T02:19:08;3.80;99.90
19781;DHT22;10050;55.492;13.506;2024-03-06T02:21:34;3.80;99.90
19781;DHT22;10050;55.492;13.506;2024-03-06T02:24:02;3.80;99.90
19781;DHT22;10050;55.492;13.506;2024-03-06T02:26:28;3.70;99.90
19781;DHT22;10050;55.492;13.506;2024-03-06T02:28:54;3.70;99.90
19781;DHT22;10050;55.492;13.506;2024-03-06T02:31:22;3.70;99.90
19781;DHT22;10050;55.492;13.506;2024-03-06T02:33:49;3.80;99.90
19781;DHT22;10050;55.492;13.506;2024-03-06T02:36:16;3.70;99.90
19781;DHT22;10050;55.492;13.506;2024-03-06T02:38:45;3.70;99.90
19781;DHT22;10050;55.492;13.506;2024-03-06T02:41:12;3.70;99.90
19781;DHT22;10050;55.492;13.506;2024-03-06T02:43:39;3.80;99.90
19781;DHT22;10050;55.492;13.506;2024-03-06T02:46:08;3.80;99.90
19781;DHT22;10050;55.492;13.506;2024-03-06T02:48:34;3.70;99.90
19781;DHT22;10050;55.492;13.506;2024-03-06T02:51:00;3.70;99.90
19781;DHT22;10050;55.492;13.506;2024-03-06T02:53:25;3.70;99.90
19781;DHT22;10050;55.492;13.506;2024-03-06T02:55:52;3.70;99.90
19781;DHT22;10050;55.492;13.506;2024-03-06T02:58:17;3.70;99.90
19781;DHT22;10050;55.492;13.506;2024-03-06T03:00:43;3.70;99.90
19781;DHT22;10050;55.492;13.506;2024-03-06T03:03:09;3.70;99.90
19781;DHT22;10050;55.492;13.506;2024-03-06T03:05:37;3.70;99.90
19781;DHT22;10050;55.492;13.506;2024-03-06T03:08:03;3.70;99.90
19781;DHT22;10050;55.492;13.506;2024-03-06T03:10:30;3.70;99.90
19781;DHT22;10050;55.492;13.506;2024-03-06T03:12:56;3.70;99.90
19781;DHT22;10050;55.492;13.506;2024-03-06T03:15:22;3.70;99.90
19781;DHT22;10050;55.492;13.506;2024-03-06T03:17:47;3.70;99.90
19781;DHT22;10050;55.492;13.506;2024-03-06T03:20:13;3.70;99.90
19781;DHT22;10050;55.492;13.506;2024-03-06T03:22:42;3.70;99.90
19781;DHT22;10050;55.492;13.506;2024-03-06T03:25:11;3.70;99.90
19781;DHT22;10050;55.492;13.506;2024-03-06T03:27:38;3.70;99.90
19781;DHT22;10050;55.492;13.506;2024-03-06T03:30:08;3.70;99.90
19781;DHT22;10050;55.492;13.506;2024-03-06T03:32:34;3.70;99.90
19781;DHT22;10050;55.492;13.506;2024-03-06T03:35:00;3.70;99.90
19781;DHT22;10050;55.492;13.506;2024-03-06T03:37:25;3.70;99.90
19781;DHT22;10050;55.492;13.506;2024-03-06T03:39:51;3.70;99.90
19781;DHT22;10050;55.492;13.506;2024-03-06T03:42:16;3.70;99.90
19781;DHT22;10050;55.492;13.506;2024-03-06T03:44:42;3.70;99.90
19781;DHT22;10050;55.492;13.506;2024-03-06T03:47:07;3.70;99.90
19781;DHT22;10050;55.492;13.506;2024-03-06T03:49:33;3.70;99.90
19781;DHT22;10050;55.492;13.506;2024-03-06T03:51:59;3.70;99.90
19781;DHT22;10050;55.492;13.506;2024-03-06T03:54:25;3.70;99.90
19781;DHT22;10050;55.492;13.506;2024-03-06T03:56:50;3.70;99.90
19781;DHT22;10050;55.492;13.506;2024-03-06T03:59:16;3.70;99.90
19781;DHT22;10050;55.492;13.506;2024-03-06T04:01:45;3.70;99.90
19781;DHT22;10050;55.492;13.506;2024-03-06T04:04:12;3.70;99.90
19781;DHT22;10050;55.492;13.506;2024-03-06T04:06:37;3.70;99.90
19781;DHT22;10050;55.492;13.506;2024-03-06T04:09:03;3.70;99.90
19781;DHT22;10050;55.492;13.506;2024-03-06T04:11:30;3.70;99.90
19781;DHT22;10050;55.492;13.506;2024-03-06T04:13:58;3.70;99.90
19781;DHT22;10050;55.492;13.506;2024-03-06T04:16:23;3.70;99.90
19781;DHT22;10050;55.492;13.506;2024-03-06T04:18:49;3.70;99.90
19781;DHT22;10050;55.492;13.506;2024-03-06T04:21:14;3.70;99.90
19781;DHT22;10050;55.492;13.506;2024-03-06T04:23:40;3.70;99.90
19781;DHT22;10050;55.492;13.506;2024-03-06T04:26:06;3.70;99.90
19781;DHT22;10050;55.492;13.506;2024-03-06T04:28:31;3.70;99.90
19781;DHT22;10050;55.492;13.506;2024-03-06T04:30:57;3.70;99.90
19781;DHT22;10050;55.492;13.506;2024-03-06T04:33:23;3.70;99.90
19781;DHT22;10050;55.492;13.506;2024-03-06T04:35:49;3.70;99.90
19781;DHT22;10050;55.492;13.506;2024-03-06T04:38:14;3.70;99.90
19781;DHT22;10050;55.492;13.506;2024-03-06T04:40:40;3.70;99.90
19781;DHT22;10050;55.492;13.506;2024-03-06T04:43:06;3.70;99.90
19781;DHT22;10050;55.492;13.506;2024-03-06T04:45:32;3.70;99.90
19781;DHT22;10050;55.492;13.506;2024-03-06T04:47:58;3.70;99.90
19781;DHT22;10050;55.492;13.506;2024-03-06T04:50:24;3.70;99.90
19781;DHT22;10050;55.492;13.506;2024-03-06T04:52:49;3.70;99.90
19781;DHT22;10050;55.492;13.506;2024-03-06T04:55:15;3.70;99.90
19781;DHT22;10050;55.492;13.506;2024-03-06T04:57:45;3.70;99.90
19781;DHT22;10050;55.492;13.506;2024-03-06T05:00:12;3.70;99.90
19781;DHT22;10050;55.492;13.506;2024-03-06T05:02:38;3.70;99.90
19781;DHT22;10050;55.492;13.506;2024-03-06T05:05:04;3.70;99.90
19781;DHT22;10050;55.492;13.506;2024-03-06T05:07:31;3.70;99.90
19781;DHT22;10050;55.492;13.506;2024-03-06T05:09:58;3.70;99.90
19781;DHT22;10050;55.492;13.506;2024-03-06T05:12:27;3.70;99.90
19781;DHT22;10050;55.492;13.506;2024-03-06T05:14:54;3.70;99.90
19781;DHT22;10050;55.492;13.506;2024-03-06T05:17:20;3.80;99.90
19781;DHT22;10050;55.492;13.506;2024-03-06T05:19:46;3.80;99.90
19781;DHT22;10050;55.492;13.506;2024-03-06T05:22:13;3.70;99.90
19781;DHT22;10050;55.492;13.506;2024-03-06T05:24:39;3.70;99.90
19781;DHT22;10050;55.492;13.506;2024-03-06T05:27:05;3.70;99.90
19781;DHT22;10050;55.492;13.506;2024-03-06T05:29:31;3.70;99.90
19781;DHT22;10050;55.492;13.506;2024-03-06T05:31:56;3.70;99.90
19781;DHT22;10050;55.492;13.506;2024-03-06T05:34:22;3.70;99.90
19781;DHT22;10050;55.492;13.506;2024-03-06T05:36:48;3.70;99.90
19781;DHT22;10050;55.492;13.506;2024-03-06T05:39:14;3.70;99.90
19781;DHT22;10050;55.492;13.506;2024-03-06T05:41:41;3.70;99.90
19781;DHT22;10050;55.492;13.506;2024-03-06T05:44:07;3.70;99.90
19781;DHT22;10050;55.492;13.506;2024-03-06T05:46:33;3.70;99.90
19781;DHT22;10050;55.492;13.506;2024-03-06T05:48:59;3.80;99.90
19781;DHT22;10050;55.492;13.506;2024-03-06T05:51:26;3.70;99.90
19781;DHT22;10050;55.492;13.506;2024-03-06T05:53:51;3.70;99.90
19781;DHT22;10050;55.492;13.506;2024-03-06T05:56:18;3.70;99.90
19781;DHT22;10050;55.492;13.506;2024-03-06T05:58:44;3.80;99.90
19781;DHT22;10050;55.492;13.506;2024-03-06T06:01:12;3.70;99.90
19781;DHT22;10050;55.492;13.506;2024-03-06T06:03:39;3.70;99.90
19781;DHT22;10050;55.492;13.506;2024-03-06T06:06:05;3.70;99.90
19781;DHT22;10050;55.492;13.506;2024-03-06T06:08:30;3.70;99.90
19781;DHT22;10050;55.492;13.506;2024-03-06T06:10:56;3.80;99.90
19781;DHT22;10050;55.492;13.506;2024-03-06T06:13:22;3.70;99.90
19781;DHT22;10050;55.492;13.506;2024-03-06T06:15:47;3.70;99.90
19781;DHT22;10050;55.492;13.506;2024-03-06T06:18:13;3.70;99.90
19781;DHT22;10050;55.492;13.506;2024-03-06T06:20:41;3.70;99.90
19781;DHT22;10050;55.492;13.506;2024-03-06T06:23:07;3.70;99.90
19781;DHT22;10050;55.492;13.506;2024-03-06T06:25:33;3.70;99.90
19781;DHT22;10050;55.492;13.506;2024-03-06T06:27:58;3.70;99.90
19781;DHT22;10050;55.492;13.506;2024-03-06T06:30:24;3.70;99.90
19781;DHT22;10050;55.492;13.506;2024-03-06T06:32:50;3.70;99.90
19781;DHT22;10050;55.492;13.506;2024-03-06T06:35:15;3.70;99.90
19781;DHT22;10050;55.492;13.506;2024-03-06T06:37:41;3.70;99.90
19781;DHT22;10050;55.492;13.506;2024-03-06T06:40:08;3.70;99.90
19781;DHT22;10050;55.492;13.506;2024-03-06T06:42:35;3.70;99.90
19781;DHT22;10050;55.492;13.506;2024-03-06T06:45:01;3.70;99.90
19781;DHT22;10050;55.492;13.506;2024-03-06T06:47:28;3.80;99.90
19781;DHT22;10050;55.492;13.506;2024-03-06T06:49:54;3.70;99.90
19781;DHT22;10050;55.492;13.506;2024-03-06T06:52:20;3.70;99.90
19781;DHT22;10050;55.492;13.506;2024-03-06T06:54:45;3.70;99.90
19781;DHT22;10050;55.492;13.506;2024-03-06T06:57:11;3.70;99.90
19781;DHT22;10050;55.492;13.506;2024-03-06T06:59:36;3.80;99.90
19781;DHT22;10050;55.492;13.506;2024-03-06T07:02:03;3.70;99.90
19781;DHT22;10050;55.492;13.506;2024-03-06T07:04:28;3.80;99.90
19781;DHT22;10050;55.492;13.506;2024-03-06T07:06:54;3.70;99.90
19781;DHT22;10050;55.492;13.506;2024-03-06T07:09:20;3.70;99.90
19781;DHT22;10050;55.492;13.506;2024-03-06T07:11:45;3.70;99.90
19781;DHT22;10050;55.492;13.506;2024-03-06T07:14:12;3.80;99.90
19781;DHT22;10050;55.492;13.506;2024-03-06T07:16:44;3.80;99.90
19781;DHT22;10050;55.492;13.506;2024-03-06T07:19:11;3.80;99.90
19781;DHT22;10050;55.492;13.506;2024-03-06T07:21:37;3.80;99.90
19781;DHT22;10050;55.492;13.506;2024-03-06T07:24:03;3.80;99.90
19781;DHT22;10050;55.492;13.506;2024-03-06T07:26:31;3.80;99.90
19781;DHT22;10050;55.492;13.506;2024-03-06T07:28:57;3.80;99.90
19781;DHT22;10050;55.492;13.506;2024-03-06T07:31:26;3.80;99.90
19781;DHT22;10050;55.492;13.506;2024-03-06T07:33:52;3.80;99.90
19781;DHT22;10050;55.492;13.506;2024-03-06T07:36:19;3.80;99.90
19781;DHT22;10050;55.492;13.506;2024-03-06T07:38:44;3.90;99.90
19781;DHT22;10050;55.492;13.506;2024-03-06T07:41:10;3.90;99.90
19781;DHT22;10050;55.492;13.506;2024-03-06T07:43:36;3.90;99.90
19781;DHT22;10050;55.492;13.506;2024-03-06T07:46:05;3.90;99.90
19781;DHT22;10050;55.492;13.506;2024-03-06T07:48:37;3.90;99.90
19781;DHT22;10050;55.492;13.506;2024-03-06T07:51:03;3.90;99.90
19781;DHT22;10050;55.492;13.506;2024-03-06T07:53:29;3.80;99.90
19781;DHT22;10050;55.492;13.506;2024-03-06T07:55:55;3.90;99.90
19781;DHT22;10050;55.492;13.506;2024-03-06T07:58:20;3.90;99.90
19781;DHT22;10050;55.492;13.506;2024-03-06T08:00:46;3.90;99.90
19781;DHT22;10050;55.492;13.506;2024-03-06T08:03:12;3.90;99.90
19781;DHT22;10050;55.492;13.506;2024-03-06T08:05:39;3.90;99.90
19781;DHT22;10050;55.492;13.506;2024-03-06T08:08:05;3.90;99.90
19781;DHT22;10050;55.492;13.506;2024-03-06T08:10:30;4.00;99.90
19781;DHT22;10050;55.492;13.506;2024-03-06T08:12:56;3.90;99.90
19781;DHT22;10050;55.492;13.506;2024-03-06T08:15:23;3.90;99.90
19781;DHT22;10050;55.492;13.506;2024-03-06T08:17:49;3.90;99.90
19781;DHT22;10050;55.492;13.506;2024-03-06T08:20:15;3.90;99.90
19781;DHT22;10050;55.492;13.506;2024-03-06T08:22:41;3.90;99.90
19781;DHT22;10050;55.492;13.506;2024-03-06T08:25:08;3.90;99.90
19781;DHT22;10050;55.492;13.506;2024-03-06T08:27:36;4.00;99.90
19781;DHT22;10050;55.492;13.506;2024-03-06T08:30:06;3.90;99.90
19781;DHT22;10050;55.492;13.506;2024-03-06T08:32:36;3.90;99.90
19781;DHT22;10050;55.492;13.506;2024-03-06T08:35:08;3.90;99.90
19781;DHT22;10050;55.492;13.506;2024-03-06T08:37:40;3.90;99.90
19781;DHT22;10050;55.492;13.506;2024-03-06T08:40:09;3.90;99.90
19781;DHT22;10050;55.492;13.506;2024-03-06T08:42:46;3.90;99.90
19781;DHT22;10050;55.492;13.506;2024-03-06T08:45:18;3.90;99.90
19781;DHT22;10050;55.492;13.506;2024-03-06T08:47:45;4.00;99.90
19781;DHT22;10050;55.492;13.506;2024-03-06T08:50:11;4.00;99.90
19781;DHT22;10050;55.492;13.506;2024-03-06T08:52:38;4.00;99.90
19781;DHT22;10050;55.492;13.506;2024-03-06T08:55:05;4.00;99.90
19781;DHT22;10050;55.492;13.506;2024-03-06T08:57:37;4.00;99.90
19781;DHT22;10050;55.492;13.506;2024-03-06T09:00:04;4.00;99.90
19781;DHT22;10050;55.492;13.506;2024-03-06T09:02:30;4.10;99.90
19781;DHT22;10050;55.492;13.506;2024-03-06T09:04:56;4.10;99.90
19781;DHT22;10050;55.492;13.506;2024-03-06T09:07:21;4.00;99.90
19781;DHT22;10050;55.492;13.506;2024-03-06T09:09:50;4.00;99.90
19781;DHT22;10050;55.492;13.506;2024-03-06T09:12:18;4.00;99.90
19781;DHT22;10050;55.492;13.506;2024-03-06T09:14:44;4.00;99.90
19781;DHT22;10050;55.492;13.506;2024-03-06T09:17:10;4.00;99.90
19781;DHT22;10050;55.492;13.506;2024-03-06T09:19:38;4.10;99.90
19781;DHT22;10050;55.492;13.506;2024-03-06T09:22:04;4.00;99.90
19781;DHT22;10050;55.492;13.506;2024-03-06T09:24:29;4.10;99.90
19781;DHT22;10050;55.492;13.506;2024-03-06T09:26:55;4.00;99.90
19781;DHT22;10050;55.492;13.506;2024-03-06T09:29:21;4.10;99.90
19781;DHT22;10050;55.492;13.506;2024-03-06T09:31:47;4.10;99.90
19781;DHT22;10050;55.492;13.506;2024-03-06T09:34:14;4.10;99.90
19781;DHT22;10050;55.492;13.506;2024-03-06T09:36:47;4.10;99.90
19781;DHT22;10050;55.492;13.506;2024-03-06T09:39:18;4.10;99.90
19781;DHT22;10050;55.492;13.506;2024-03-06T09:41:51;4.10;99.90
19781;DHT22;10050;55.492;13.506;2024-03-06T09:44:17;4.10;99.90
19781;DHT22;10050;55.492;13.506;2024-03-06T09:46:47;4.00;99.90
19781;DHT22;10050;55.492;13.506;2024-03-06T09:49:15;4.10;99.90
19781;DHT22;10050;55.492;13.506;2024-03-06T09:51:49;4.00;99.90
19781;DHT22;10050;55.492;13.506;2024-03-06T09:54:21;4.00;99.90
19781;DHT22;10050;55.492;13.506;2024-03-06T09:56:47;4.00;99.90
19781;DHT22;10050;55.492;13.506;2024-03-06T09:59:14;4.00;99.90
19781;DHT22;10050;55.492;13.506;2024-03-06T10:04:22;4.00;99.90
19781;DHT22;10050;55.492;13.506;2024-03-06T10:06:48;4.00;99.90
19781;DHT22;10050;55.492;13.506;2024-03-06T10:09:18;4.00;99.90
19781;DHT22;10050;55.492;13.506;2024-03-06T10:11:44;4.00;99.90
19781;DHT22;10050;55.492;13.506;2024-03-06T10:14:10;4.00;99.90
19781;DHT22;10050;55.492;13.506;2024-03-06T10:16:36;4.00;99.90
19781;DHT22;10050;55.492;13.506;2024-03-06T10:19:18;4.00;99.90
19781;DHT22;10050;55.492;13.506;2024-03-06T10:21:47;4.00;99.90
19781;DHT22;10050;55.492;13.506;2024-03-06T10:24:19;4.00;99.90
19781;DHT22;10050;55.492;13.506;2024-03-06T10:26:46;4.00;99.90
19781;DHT22;10050;55.492;13.506;2024-03-06T10:29:15;4.00;99.90
19781;DHT22;10050;55.492;13.506;2024-03-06T10:31:46;4.00;99.90
19781;DHT22;10050;55.492;13.506;2024-03-06T10:34:15;4.10;99.90
19781;DHT22;10050;55.492;13.506;2024-03-06T10:36:42;4.00;99.90
19781;DHT22;10050;55.492;13.506;2024-03-06T10:39:11;4.00;99.90
19781;DHT22;10050;55.492;13.506;2024-03-06T10:41:37;4.00;99.90
19781;DHT22;10050;55.492;13.506;2024-03-06T10:44:08;4.00;99.90
19781;DHT22;10050;55.492;13.506;2024-03-06T10:46:40;4.00;99.90
19781;DHT22;10050;55.492;13.506;2024-03-06T10:49:08;3.90;99.90
19781;DHT22;10050;55.492;13.506;2024-03-06T10:51:39;3.90;99.90
19781;DHT22;10050;55.492;13.506;2024-03-06T10:54:08;4.00;99.90
19781;DHT22;10050;55.492;13.506;2024-03-06T10:56:38;3.90;99.90
19781;DHT22;10050;55.492;13.506;2024-03-06T10:59:04;3.90;99.90
19781;DHT22;10050;55.492;13.506;2024-03-06T11:01:32;3.90;99.90
19781;DHT22;10050;55.492;13.506;2024-03-06T11:04:00;3.90;99.90
19781;DHT22;10050;55.492;13.506;2024-03-06T11:06:26;3.90;99.90
19781;DHT22;10050;55.492;13.506;2024-03-06T11:08:52;3.90;99.90
19781;DHT22;10050;55.492;13.506;2024-03-06T11:11:19;3.90;99.90
19781;DHT22;10050;55.492;13.506;2024-03-06T11:13:46;3.90;99.90
19781;DHT22;10050;55.492;13.506;2024-03-06T11:16:13;3.90;99.90
19781;DHT22;10050;55.492;13.506;2024-03-06T11:23:31;3.90;99.90
19781;DHT22;10050;55.492;13.506;2024-03-06T11:26:01;3.90;99.90
19781;DHT22;10050;55.492;13.506;2024-03-06T11:28:36;3.90;99.90
19781;DHT22;10050;55.492;13.506;2024-03-06T11:31:04;3.90;99.90
19781;DHT22;10050;55.492;13.506;2024-03-06T11:33:42;3.90;99.90
19781;DHT22;10050;55.492;13.506;2024-03-06T11:41:29;3.90;99.90
19781;DHT22;10050;55.492;13.506;2024-03-06T11:43:56;3.80;99.90
19781;DHT22;10050;55.492;13.506;2024-03-06T11:46:47;3.80;99.90
19781;DHT22;10050;55.492;13.506;2024-03-06T11:49:19;3.90;99.90
19781;DHT22;10050;55.492;13.506;2024-03-06T11:51:53;3.90;99.90
19781;DHT22;10050;55.492;13.506;2024-03-06T11:54:19;3.90;99.90
19781;DHT22;10050;55.492;13.506;2024-03-06T11:56:50;3.90;99.90
19781;DHT22;10050;55.492;13.506;2024-03-06T11:59:20;3.80;99.90
19781;DHT22;10050;55.492;13.506;2024-03-06T12:01:46;3.90;99.90
19781;DHT22;10050;55.492;13.506;2024-03-06T12:04:13;3.90;99.90
19781;DHT22;10050;55.492;13.506;2024-03-06T12:06:38;3.90;99.90
19781;DHT22;10050;55.492;13.506;2024-03-06T12:09:04;3.90;99.90
19781;DHT22;10050;55.492;13.506;2024-03-06T12:11:30;3.90;99.90
19781;DHT22;10050;55.492;13.506;2024-03-06T12:13:59;3.90;99.90
19781;DHT22;10050;55.492;13.506;2024-03-06T12:16:24;3.90;99.90
19781;DHT22;10050;55.492;13.506;2024-03-06T12:18:57;3.90;99.90
19781;DHT22;10050;55.492;13.506;2024-03-06T12:21:33;3.90;99.90
19781;DHT22;10050;55.492;13.506;2024-03-06T12:24:07;3.90;99.90
19781;DHT22;10050;55.492;13.506;2024-03-06T12:26:33;3.90;99.90
19781;DHT22;10050;55.492;13.506;2024-03-06T12:29:09;3.90;99.90
19781;DHT22;10050;55.492;13.506;2024-03-06T12:31:37;3.90;99.90
19781;DHT22;10050;55.492;13.506;2024-03-06T12:34:04;4.00;99.90
19781;DHT22;10050;55.492;13.506;2024-03-06T12:36:30;4.00;99.90
19781;DHT22;10050;55.492;13.506;2024-03-06T12:39:01;4.10;99.90
19781;DHT22;10050;55.492;13.506;2024-03-06T12:41:27;4.10;99.90
19781;DHT22;10050;55.492;13.506;2024-03-06T12:43:53;4.10;99.90
19781;DHT22;10050;55.492;13.506;2024-03-06T12:46:20;4.20;99.90
19781;DHT22;10050;55.492;13.506;2024-03-06T12:48:45;4.20;99.90
19781;DHT22;10050;55.492;13.506;2024-03-06T12:51:11;4.20;99.90
19781;DHT22;10050;55.492;13.506;2024-03-06T12:53:37;4.20;99.90
19781;DHT22;10050;55.492;13.506;2024-03-06T12:56:03;4.30;99.90
19781;DHT22;10050;55.492;13.506;2024-03-06T12:58:29;4.30;99.90
19781;DHT22;10050;55.492;13.506;2024-03-06T13:00:57;4.30;99.90
19781;DHT22;10050;55.492;13.506;2024-03-06T13:03:23;4.40;99.90
19781;DHT22;10050;55.492;13.506;2024-03-06T13:05:48;4.40;99.90
19781;DHT22;10050;55.492;13.506;2024-03-06T13:08:18;4.40;99.90
19781;DHT22;10050;55.492;13.506;2024-03-06T13:10:44;4.50;99.90
19781;DHT22;10050;55.492;13.506;2024-03-06T13:13:10;4.60;99.90
19781;DHT22;10050;55.492;13.506;2024-03-06T13:15:36;4.70;99.90
19781;DHT22;10050;55.492;13.506;2024-03-06T13:18:07;4.90;99.90
19781;DHT22;10050;55.492;13.506;2024-03-06T13:20:33;4.90;99.90
19781;DHT22;10050;55.492;13.506;2024-03-06T13:22:59;4.90;99.90
19781;DHT22;10050;55.492;13.506;2024-03-06T13:25:27;4.90;99.90
19781;DHT22;10050;55.492;13.506;2024-03-06T13:27:54;5.00;99.90
19781;DHT22;10050;55.492;13.506;2024-03-06T13:30:20;5.00;99.90
19781;DHT22;10050;55.492;13.506;2024-03-06T13:32:46;4.90;99.90
19781;DHT22;10050;55.492;13.506;2024-03-06T13:35:12;4.90;99.90
19781;DHT22;10050;55.492;13.506;2024-03-06T13:37:42;4.90;99.90
19781;DHT22;10050;55.492;13.506;2024-03-06T13:40:09;4.80;99.90
19781;DHT22;10050;55.492;13.506;2024-03-06T13:42:36;4.80;99.90
19781;DHT22;10050;55.492;13.506;2024-03-06T13:45:03;4.80;99.90
19781;DHT22;10050;55.492;13.506;2024-03-06T13:47:29;4.80;99.90
19781;DHT22;10050;55.492;13.506;2024-03-06T13:49:55;4.80;99.90
19781;DHT22;10050;55.492;13.506;2024-03-06T13:52:21;4.80;99.90
19781;DHT22;10050;55.492;13.506;2024-03-06T13:54:49;4.80;99.90
19781;DHT22;10050;55.492;13.506;2024-03-06T13:57:15;4.90;99.90
19781;DHT22;10050;55.492;13.506;2024-03-06T13:59:41;4.90;99.90
19781;DHT22;10050;55.492;13.506;2024-03-06T14:02:07;4.80;99.90
19781;DHT22;10050;55.492;13.506;2024-03-06T14:04:33;4.80;99.90
19781;DHT22;10050;55.492;13.506;2024-03-06T14:06:59;4.80;99.90
19781;DHT22;10050;55.492;13.506;2024-03-06T14:09:26;4.70;99.90
19781;DHT22;10050;55.492;13.506;2024-03-06T14:11:52;4.70;99.90
19781;DHT22;10050;55.492;13.506;2024-03-06T14:14:18;4.80;99.90
19781;DHT22;10050;55.492;13.506;2024-03-06T14:16:45;4.80;99.90
19781;DHT22;10050;55.492;13.506;2024-03-06T14:19:11;4.90;99.90
19781;DHT22;10050;55.492;13.506;2024-03-06T14:21:37;4.90;99.90
19781;DHT22;10050;55.492;13.506;2024-03-06T14:24:04;4.90;99.90
19781;DHT22;10050;55.492;13.506;2024-03-06T14:26:31;4.90;99.90
19781;DHT22;10050;55.492;13.506;2024-03-06T14:29:01;4.90;99.90
19781;DHT22;10050;55.492;13.506;2024-03-06T14:31:31;4.90;99.90
19781;DHT22;10050;55.492;13.506;2024-03-06T14:33:57;4.80;99.90
19781;DHT22;10050;55.492;13.506;2024-03-06T14:36:23;4.70;99.90
19781;DHT22;10050;55.492;13.506;2024-03-06T14:38:51;4.60;99.90
19781;DHT22;10050;55.492;13.506;2024-03-06T14:41:18;4.60;99.90
19781;DHT22;10050;55.492;13.506;2024-03-06T14:43:44;4.40;99.90
19781;DHT22;10050;55.492;13.506;2024-03-06T14:46:11;4.50;99.90
19781;DHT22;10050;55.492;13.506;2024-03-06T14:48:38;4.50;99.90
19781;DHT22;10050;55.492;13.506;2024-03-06T14:51:07;4.50;99.90
19781;DHT22;10050;55.492;13.506;2024-03-06T14:53:32;4.50;99.90
19781;DHT22;10050;55.492;13.506;2024-03-06T14:55:58;4.50;99.90
19781;DHT22;10050;55.492;13.506;2024-03-06T14:58:24;4.50;99.90
19781;DHT22;10050;55.492;13.506;2024-03-06T15:00:50;4.50;99.90
19781;DHT22;10050;55.492;13.506;2024-03-06T15:03:18;4.50;99.90
19781;DHT22;10050;55.492;13.506;2024-03-06T15:05:44;4.50;99.90
19781;DHT22;10050;55.492;13.506;2024-03-06T15:08:11;4.60;99.90
19781;DHT22;10050;55.492;13.506;2024-03-06T15:10:37;4.70;99.90
19781;DHT22;10050;55.492;13.506;2024-03-06T15:13:02;4.70;99.90
19781;DHT22;10050;55.492;13.506;2024-03-06T15:15:28;4.70;99.90
19781;DHT22;10050;55.492;13.506;2024-03-06T15:17:54;4.70;99.90
19781;DHT22;10050;55.492;13.506;2024-03-06T15:20:19;4.60;99.90
19781;DHT22;10050;55.492;13.506;2024-03-06T15:22:45;4.70;99.90
19781;DHT22;10050;55.492;13.506;2024-03-06T15:25:11;4.70;99.90
19781;DHT22;10050;55.492;13.506;2024-03-06T15:27:38;4.70;99.90
19781;DHT22;10050;55.492;13.506;2024-03-06T15:30:10;4.60;99.90
19781;DHT22;10050;55.492;13.506;2024-03-06T15:32:37;4.50;99.90
19781;DHT22;10050;55.492;13.506;2024-03-06T15:35:04;4.40;99.90
19781;DHT22;10050;55.492;13.506;2024-03-06T15:37:31;4.40;99.90
19781;DHT22;10050;55.492;13.506;2024-03-06T15:39:57;4.30;99.90